createdAt,value
2023-05-05T00:01:04.777Z,61.80
2023-05-05T00:03:37.560Z,63.29
2023-05-05T00:06:07.213Z,74.95
2023-05-05T00:08:35.927Z,65.95
2023-05-05T00:11:04.596Z,56.76
2023-05-05T00:13:33.274Z,51.80
2023-05-05T00:16:01.903Z,52.51
2023-05-05T00:18:30.656Z,54.28
2023-05-05T00:20:59.416Z,55.41
2023-05-05T00:23:28.076Z,55.85
2023-05-05T00:25:56.725Z,56.32
2023-05-05T00:28:25.736Z,57.14
2023-05-05T00:30:54.432Z,58.14
2023-05-05T00:33:23.659Z,58.69
2023-05-05T00:35:52.361Z,59.29
2023-05-05T00:38:21.016Z,59.51
2023-05-05T00:40:49.789Z,59.88
2023-05-05T00:43:18.457Z,59.85
2023-05-05T00:45:48.137Z,59.98
2023-05-05T00:48:17.940Z,60.66
2023-05-05T00:50:46.606Z,60.67
2023-05-05T00:53:15.527Z,60.80
2023-05-05T00:55:44.165Z,61.11
2023-05-05T00:58:13.620Z,61.52
2023-05-05T01:00:42.603Z,61.56
2023-05-05T01:03:13.156Z,61.63
2023-05-05T01:06:10.173Z,61.92
2023-05-05T01:09:06.768Z,61.82
2023-05-05T01:11:44.559Z,61.70
2023-05-05T01:14:18.606Z,61.76
2023-05-05T01:17:01.376Z,61.63
2023-05-05T01:19:46.959Z,61.72
2023-05-05T01:22:19.941Z,61.83
2023-05-05T01:25:07.217Z,62.16
2023-05-05T01:27:59.465Z,68.24
2023-05-05T01:30:36.715Z,69.64
2023-05-05T01:33:08.567Z,59.79
2023-05-05T01:35:43.747Z,52.12
2023-05-05T01:38:21.261Z,51.58
2023-05-05T01:41:01.855Z,52.93
2023-05-05T01:43:34.636Z,54.19
2023-05-05T01:46:04.978Z,55.60
2023-05-05T01:48:34.136Z,56.27
2023-05-05T01:51:04.342Z,57.31
2023-05-05T01:53:34.407Z,58.22
2023-05-05T01:56:04.190Z,58.63
2023-05-05T01:58:34.324Z,59.58
2023-05-05T02:01:04.165Z,59.69
2023-05-05T02:03:36.267Z,60.15
2023-05-05T02:06:07.434Z,60.93
2023-05-05T02:08:38.587Z,60.91
2023-05-05T02:11:09.984Z,61.31
2023-05-05T02:13:42.092Z,61.47
2023-05-05T02:16:12.989Z,61.74
2023-05-05T02:18:42.565Z,70.45
2023-05-05T02:21:11.307Z,69.48
2023-05-05T02:23:40.423Z,60.79
2023-05-05T02:26:12.114Z,52.40
2023-05-05T02:28:51.558Z,52.02
2023-05-05T02:31:23.982Z,53.62
2023-05-05T02:33:55.054Z,55.18
2023-05-05T02:36:28.591Z,56.46
2023-05-05T02:39:02.347Z,57.39
2023-05-05T02:41:34.717Z,58.28
2023-05-05T02:44:05.181Z,59.15
2023-05-05T02:46:33.965Z,59.39
2023-05-05T02:49:02.667Z,59.88
2023-05-05T02:51:32.660Z,60.32
2023-05-05T02:54:01.763Z,60.79
2023-05-05T02:56:51.046Z,60.82
2023-05-05T02:59:49.575Z,70.34
2023-05-05T03:02:27.432Z,65.90
2023-05-05T03:05:23.911Z,55.51
2023-05-05T03:08:01.773Z,51.78
2023-05-05T03:10:36.431Z,53.23
2023-05-05T03:13:09.314Z,54.55
2023-05-05T03:15:43.550Z,55.83
2023-05-05T03:18:15.583Z,56.63
2023-05-05T03:20:44.367Z,57.71
2023-05-05T03:23:18.368Z,58.15
2023-05-05T03:25:49.208Z,58.54
2023-05-05T03:28:18.065Z,59.34
2023-05-05T03:30:46.774Z,60.29
2023-05-05T03:33:16.184Z,60.48
2023-05-05T03:35:45.055Z,60.82
2023-05-05T03:38:13.718Z,61.07
2023-05-05T03:40:44.678Z,61.78
2023-05-05T03:43:13.762Z,70.22
2023-05-05T03:45:42.537Z,67.52
2023-05-05T03:48:11.431Z,58.31
2023-05-05T03:50:40.640Z,51.76
2023-05-05T03:53:09.305Z,52.27
2023-05-05T03:55:37.956Z,54.14
2023-05-05T03:58:07.083Z,55.43
2023-05-05T04:00:35.781Z,56.13
2023-05-05T04:03:04.553Z,57.20
2023-05-05T04:05:33.372Z,57.89
2023-05-05T04:08:03.480Z,58.77
2023-05-05T04:10:32.299Z,59.46
2023-05-05T04:13:01.065Z,59.89
2023-05-05T04:15:30.133Z,60.46
2023-05-05T04:17:58.882Z,61.01
2023-05-05T04:20:27.616Z,61.44
2023-05-05T04:22:56.353Z,61.81
2023-05-05T04:25:25.086Z,70.52
2023-05-05T04:27:53.811Z,69.17
2023-05-05T04:30:22.486Z,59.61
2023-05-05T04:32:51.172Z,52.33
2023-05-05T04:35:19.862Z,52.29
2023-05-05T04:37:48.721Z,53.93
2023-05-05T04:40:17.462Z,55.57
2023-05-05T04:42:46.373Z,56.25
2023-05-05T04:45:15.161Z,57.58
2023-05-05T04:47:43.964Z,58.39
2023-05-05T04:50:13.565Z,59.00
2023-05-05T04:52:42.251Z,59.89
2023-05-05T04:55:11.602Z,60.01
2023-05-05T04:57:40.406Z,60.44
2023-05-05T05:00:09.921Z,60.71
2023-05-05T05:02:38.911Z,61.25
2023-05-05T05:05:08.201Z,61.51
2023-05-05T05:07:36.851Z,68.97
2023-05-05T05:10:06.239Z,69.90
2023-05-05T05:12:35.533Z,59.77
2023-05-05T05:15:04.859Z,51.92
2023-05-05T05:17:33.546Z,50.95
2023-05-05T05:20:05.021Z,52.24
2023-05-05T05:22:34.949Z,53.46
2023-05-05T05:25:03.871Z,54.69
2023-05-05T05:27:32.568Z,56.18
2023-05-05T05:30:01.306Z,57.22
2023-05-05T05:32:29.999Z,57.44
2023-05-05T05:34:58.742Z,57.57
2023-05-05T05:37:31.076Z,58.23
2023-05-05T05:39:59.828Z,58.22
2023-05-05T05:42:28.516Z,58.83
2023-05-05T05:44:58.784Z,59.53
2023-05-05T05:47:28.136Z,59.29
2023-05-05T05:49:56.831Z,59.73
2023-05-05T05:52:25.482Z,59.66
2023-05-05T05:54:54.126Z,60.29
2023-05-05T05:57:24.620Z,60.02
2023-05-05T05:59:54.110Z,59.97
2023-05-05T06:02:22.870Z,59.97
2023-05-05T06:04:52.221Z,59.93
2023-05-05T06:07:20.970Z,59.99
2023-05-05T06:09:49.684Z,59.92
2023-05-05T06:12:18.383Z,59.89
2023-05-05T06:14:47.011Z,59.79
2023-05-05T06:17:15.685Z,59.84
2023-05-05T06:19:44.402Z,60.11
2023-05-05T06:22:13.067Z,59.98
2023-05-05T06:24:41.715Z,60.14
2023-05-05T06:27:10.365Z,60.13
2023-05-05T06:29:39.002Z,59.98
2023-05-05T06:32:08.503Z,59.97
2023-05-05T06:34:37.178Z,60.00
2023-05-05T06:37:05.806Z,60.36
2023-05-05T06:39:34.442Z,60.15
2023-05-05T06:42:04.116Z,59.62
2023-05-05T06:44:34.557Z,59.50
2023-05-05T06:47:04.036Z,59.20
2023-05-05T06:49:32.724Z,59.44
2023-05-05T06:52:01.700Z,58.96
2023-05-05T06:54:30.381Z,59.02
2023-05-05T06:56:59.674Z,58.67
2023-05-05T06:59:28.608Z,58.35
2023-05-05T07:01:57.394Z,58.28
2023-05-05T07:04:26.899Z,58.38
2023-05-05T07:06:55.710Z,58.72
2023-05-05T07:09:24.535Z,58.67
2023-05-05T07:11:53.248Z,58.52
2023-05-05T07:14:24.248Z,58.44
2023-05-05T07:16:53.276Z,58.30
2023-05-05T07:19:22.337Z,58.52
2023-05-05T07:21:52.075Z,58.62
2023-05-05T07:24:23.324Z,58.20
2023-05-05T07:26:52.119Z,58.15
2023-05-05T07:29:20.818Z,58.00
2023-05-05T07:31:49.513Z,57.73
2023-05-05T07:34:18.204Z,57.64
2023-05-05T07:36:46.907Z,57.56
2023-05-05T07:39:15.815Z,57.26
2023-05-05T07:41:44.481Z,56.96
2023-05-05T07:44:13.191Z,56.56
2023-05-05T07:46:41.902Z,56.64
2023-05-05T07:49:10.699Z,56.68
2023-05-05T07:51:39.457Z,56.83
2023-05-05T07:54:08.537Z,56.49
2023-05-05T07:56:37.231Z,56.64
2023-05-05T07:59:05.907Z,56.69
2023-05-05T08:01:34.644Z,56.43
2023-05-05T08:04:03.386Z,56.73
2023-05-05T08:06:32.517Z,56.61
2023-05-05T08:09:01.861Z,55.98
2023-05-05T08:11:30.571Z,56.37
2023-05-05T08:13:59.251Z,56.27
2023-05-05T08:16:28.046Z,56.35
2023-05-05T08:18:56.866Z,56.03
2023-05-05T08:21:25.573Z,55.99
2023-05-05T08:23:54.225Z,56.06
2023-05-05T08:26:22.957Z,56.13
2023-05-05T08:28:55.078Z,56.07
2023-05-05T08:31:23.818Z,55.74
2023-05-05T08:33:52.504Z,55.47
2023-05-05T08:36:21.522Z,55.05
2023-05-05T08:38:50.222Z,54.80
2023-05-05T08:41:19.821Z,54.88
2023-05-05T08:43:49.349Z,54.43
2023-05-05T08:46:18.050Z,53.73
2023-05-05T08:48:49.488Z,53.87
2023-05-05T08:51:19.912Z,53.65
2023-05-05T08:54:03.849Z,52.95
2023-05-05T08:56:40.757Z,52.79
2023-05-05T08:59:13.386Z,52.35
2023-05-05T09:01:42.804Z,52.05
2023-05-05T09:04:11.597Z,52.30
2023-05-05T09:06:40.469Z,52.40
2023-05-05T09:09:09.265Z,51.97
2023-05-05T09:11:39.248Z,51.93
2023-05-05T09:16:54.018Z,52.09
2023-05-05T09:19:22.698Z,51.73
2023-05-05T09:21:51.556Z,51.37
2023-05-05T09:24:20.348Z,50.99
2023-05-05T09:26:49.860Z,51.02
2023-05-05T09:29:23.161Z,50.63
2023-05-05T09:32:05.776Z,50.34
2023-05-05T09:34:36.171Z,50.54
2023-05-05T09:37:06.195Z,50.48
2023-05-05T09:39:35.073Z,49.91
2023-05-05T09:42:03.856Z,49.67
2023-05-05T09:44:37.253Z,49.40
2023-05-05T09:47:14.807Z,48.54
2023-05-05T09:49:58.839Z,48.46
2023-05-05T09:52:27.660Z,47.81
2023-05-05T09:54:57.283Z,47.86
2023-05-05T09:57:28.332Z,47.87
2023-05-05T09:59:58.969Z,47.45
2023-05-05T10:02:39.157Z,47.59
2023-05-05T10:05:11.733Z,47.47
2023-05-05T10:07:42.995Z,47.23
2023-05-05T10:10:14.106Z,47.09
2023-05-05T10:12:43.120Z,46.44
2023-05-05T10:15:12.134Z,45.72
2023-05-05T10:18:06.123Z,45.28
2023-05-05T10:20:38.791Z,45.33
2023-05-05T10:23:10.624Z,45.22
2023-05-05T10:25:43.950Z,45.22
2023-05-05T10:28:18.844Z,45.43
2023-05-05T10:30:51.320Z,45.60
2023-05-05T10:33:32.092Z,45.82
2023-05-05T10:36:05.310Z,45.47
2023-05-05T10:38:34.411Z,44.96
2023-05-05T10:41:03.472Z,44.17
2023-05-05T10:43:33.423Z,44.04
2023-05-05T10:46:02.761Z,43.71
2023-05-05T10:48:44.848Z,43.37
2023-05-05T10:51:40.016Z,42.99
2023-05-05T10:54:21.358Z,42.83
2023-05-05T10:56:51.495Z,42.60
2023-05-05T10:59:37.887Z,42.27
2023-05-05T11:02:24.183Z,41.58
2023-05-05T11:05:16.884Z,41.36
2023-05-05T11:07:47.576Z,41.45
2023-05-05T11:10:20.592Z,41.35
2023-05-05T11:12:57.805Z,41.11
2023-05-05T11:15:26.793Z,40.87
2023-05-05T11:18:06.800Z,40.64
2023-05-05T11:20:37.129Z,40.04
2023-05-05T11:23:05.787Z,40.29
2023-05-05T11:25:34.467Z,40.20
2023-05-05T11:28:11.959Z,40.15
2023-05-05T11:30:59.485Z,40.13
2023-05-05T11:33:32.604Z,40.14
2023-05-05T11:36:08.752Z,39.56
2023-05-05T11:38:46.683Z,40.27
2023-05-05T11:41:38.399Z,40.06
2023-05-05T11:44:18.221Z,39.88
2023-05-05T11:46:53.061Z,39.67
2023-05-05T11:49:28.490Z,39.65
2023-05-05T11:52:02.020Z,39.13
2023-05-05T11:54:31.862Z,39.16
2023-05-05T11:57:07.201Z,39.14
2023-05-05T11:59:49.765Z,39.48
2023-05-05T12:02:19.929Z,39.22
2023-05-05T12:04:50.527Z,39.23
2023-05-05T12:07:21.343Z,39.12
2023-05-05T12:09:50.768Z,38.18
2023-05-05T12:12:20.278Z,38.58
2023-05-05T12:14:54.664Z,38.58
2023-05-05T12:17:23.474Z,38.60
2023-05-05T12:19:54.085Z,38.27
2023-05-05T12:22:26.022Z,38.05
2023-05-05T12:25:06.546Z,37.56
2023-05-05T12:27:35.868Z,36.70
2023-05-05T12:30:12.685Z,36.97
2023-05-05T12:32:41.753Z,37.35
2023-05-05T12:35:11.234Z,36.74
2023-05-05T12:37:40.729Z,36.92
2023-05-05T12:40:48.891Z,36.26
2023-05-05T12:43:43.990Z,36.13
2023-05-05T12:46:13.734Z,36.46
2023-05-05T12:48:48.114Z,36.12
2023-05-05T12:51:23.359Z,35.94
2023-05-05T12:54:03.297Z,36.52
2023-05-05T12:56:36.533Z,36.29
2023-05-05T12:59:09.798Z,36.35
2023-05-05T13:01:50.975Z,36.48
2023-05-05T13:04:21.431Z,36.73
2023-05-05T13:07:07.838Z,37.29
2023-05-05T13:09:36.596Z,37.87
2023-05-05T13:12:07.195Z,37.97
2023-05-05T13:14:36.519Z,37.99
2023-05-05T13:17:05.415Z,37.84
2023-05-05T13:19:35.903Z,38.20
2023-05-05T13:22:04.557Z,38.61
2023-05-05T13:24:46.422Z,38.59
2023-05-05T13:27:16.411Z,38.61
2023-05-05T13:29:45.196Z,38.75
2023-05-05T13:32:13.924Z,39.14
2023-05-05T13:34:44.171Z,39.31
2023-05-05T13:37:12.858Z,39.51
2023-05-05T13:39:41.566Z,39.73
2023-05-05T13:42:10.359Z,39.72
2023-05-05T13:44:39.476Z,39.89
2023-05-05T13:47:08.655Z,40.26
2023-05-05T13:49:37.396Z,40.68
2023-05-05T13:52:06.086Z,41.13
2023-05-05T13:54:34.775Z,41.29
2023-05-05T13:57:03.524Z,41.42
2023-05-05T13:59:32.256Z,41.71
2023-05-05T14:02:01.284Z,41.54
2023-05-05T14:04:30.098Z,41.79
2023-05-05T14:06:58.931Z,41.82
2023-05-05T14:09:27.622Z,41.63
2023-05-05T14:11:56.272Z,41.50
2023-05-05T14:14:24.924Z,41.42
2023-05-05T14:16:53.618Z,41.35
2023-05-05T14:19:22.346Z,41.40
2023-05-05T14:21:51.156Z,41.51
2023-05-05T14:24:19.834Z,41.53
2023-05-05T14:26:49.158Z,41.57
2023-05-05T14:29:17.892Z,41.70
2023-05-05T14:31:46.674Z,42.00
2023-05-05T14:34:15.324Z,42.22
2023-05-05T14:36:43.999Z,42.33
2023-05-05T14:39:12.687Z,42.09
2023-05-05T14:41:41.364Z,42.12
2023-05-05T14:44:09.983Z,42.17
2023-05-05T14:46:38.668Z,42.32
2023-05-05T14:49:07.331Z,42.15
2023-05-05T14:51:35.997Z,42.30
2023-05-05T14:54:09.337Z,42.42
2023-05-05T14:56:43.101Z,42.52
2023-05-05T14:59:11.758Z,42.56
2023-05-05T15:01:40.830Z,42.89
2023-05-05T15:04:09.857Z,43.11
2023-05-05T15:06:38.601Z,43.25
2023-05-05T15:09:07.304Z,43.80
2023-05-05T15:11:36.025Z,43.59
2023-05-05T15:14:04.681Z,43.65
2023-05-05T15:16:35.158Z,43.64
2023-05-05T15:19:04.138Z,43.73
2023-05-05T15:21:32.810Z,43.84
2023-05-05T15:24:01.491Z,44.10
2023-05-05T15:26:30.197Z,44.24
2023-05-05T15:28:58.864Z,44.14
2023-05-05T15:31:27.545Z,44.19
2023-05-05T15:33:56.395Z,44.59
2023-05-05T15:36:25.101Z,44.63
2023-05-05T15:38:53.768Z,44.82
2023-05-05T15:41:22.855Z,44.85
2023-05-05T15:43:51.499Z,45.06
2023-05-05T15:46:20.269Z,45.19
2023-05-05T15:48:48.939Z,45.28
2023-05-05T15:51:17.627Z,45.58
2023-05-05T15:53:46.607Z,45.89
2023-05-05T15:56:15.258Z,45.79
2023-05-05T15:58:43.989Z,46.05
2023-05-05T16:01:12.706Z,46.26
2023-05-05T16:03:41.415Z,46.25
2023-05-05T16:06:12.293Z,46.36
2023-05-05T16:08:41.306Z,46.30
2023-05-05T16:11:09.984Z,46.55
2023-05-05T16:13:39.245Z,46.41
2023-05-05T16:16:08.028Z,46.50
2023-05-05T16:18:36.740Z,46.59
2023-05-05T16:21:05.476Z,46.71
2023-05-05T16:23:34.242Z,46.78
2023-05-05T16:26:04.071Z,46.73
2023-05-05T16:28:34.274Z,46.76
2023-05-05T16:31:03.168Z,46.93
2023-05-05T16:33:31.852Z,46.96
2023-05-05T16:36:00.588Z,47.02
2023-05-05T16:38:29.334Z,47.14
2023-05-05T16:40:58.044Z,47.07
2023-05-05T16:43:26.739Z,47.13
2023-05-05T16:45:55.390Z,47.22
2023-05-05T16:48:24.377Z,47.27
2023-05-05T16:50:53.001Z,47.59
2023-05-05T16:53:21.736Z,47.74
2023-05-05T16:55:54.573Z,47.59
2023-05-05T16:58:23.643Z,47.59
2023-05-05T17:00:52.925Z,47.79
2023-05-05T17:03:22.623Z,48.22
2023-05-05T17:05:53.085Z,47.93
2023-05-05T17:08:21.968Z,47.97
2023-05-05T17:10:50.616Z,47.95
2023-05-05T17:13:19.425Z,48.06
2023-05-05T17:15:48.346Z,48.24
2023-05-05T17:18:20.105Z,48.17
2023-05-05T17:20:49.913Z,48.33
2023-05-05T17:23:21.082Z,48.27
2023-05-05T17:25:49.732Z,48.42
2023-05-05T17:28:18.462Z,48.62
2023-05-05T17:30:47.127Z,48.61
2023-05-05T17:33:18.387Z,48.80
2023-05-05T17:35:47.875Z,48.76
2023-05-05T17:38:17.597Z,48.86
2023-05-05T17:40:46.681Z,49.04
2023-05-05T17:43:15.409Z,48.81
2023-05-05T17:45:44.150Z,48.83
2023-05-05T17:48:12.894Z,48.83
2023-05-05T17:50:43.391Z,48.96
2023-05-05T17:53:12.414Z,49.12
2023-05-05T17:55:45.263Z,49.09
2023-05-05T17:58:13.944Z,49.29
2023-05-05T18:00:42.599Z,49.31
2023-05-05T18:03:11.364Z,49.42
2023-05-05T18:05:40.101Z,49.44
2023-05-05T18:08:09.003Z,49.48
2023-05-05T18:10:37.746Z,49.80
2023-05-05T18:13:06.692Z,49.85
2023-05-05T18:15:35.376Z,49.93
2023-05-05T18:18:04.276Z,50.51
2023-05-05T18:20:32.963Z,50.56
2023-05-05T18:23:01.891Z,50.59
2023-05-05T18:25:30.614Z,50.35
2023-05-05T18:27:59.398Z,50.69
2023-05-05T18:30:28.169Z,50.96
2023-05-05T18:32:56.908Z,50.93
2023-05-05T18:35:26.079Z,50.86
2023-05-05T18:37:55.223Z,51.16
2023-05-05T18:40:23.940Z,51.23
2023-05-05T18:42:52.685Z,51.44
2023-05-05T18:45:21.573Z,51.48
2023-05-05T18:47:50.261Z,51.48
2023-05-05T18:50:19.018Z,52.20
2023-05-05T18:52:47.720Z,51.95
2023-05-05T18:55:16.418Z,52.08
2023-05-05T18:57:45.053Z,52.25
2023-05-05T19:00:14.108Z,52.31
2023-05-05T19:02:42.853Z,52.65
2023-05-05T19:05:11.688Z,52.58
2023-05-05T19:07:40.980Z,52.52
2023-05-05T19:10:10.269Z,53.19
2023-05-05T19:12:39.072Z,52.62
2023-05-05T19:15:08.554Z,52.84
2023-05-05T19:17:37.505Z,52.74
2023-05-05T19:20:06.669Z,52.87
2023-05-05T19:22:35.378Z,53.24
2023-05-05T19:25:04.348Z,53.20
2023-05-05T19:27:33.990Z,52.99
2023-05-05T19:30:06.379Z,53.29
2023-05-05T19:32:35.287Z,53.14
2023-05-05T19:35:06.768Z,53.81
2023-05-05T19:37:35.503Z,53.76
2023-05-05T19:40:04.863Z,53.74
2023-05-05T19:42:33.558Z,53.74
2023-05-05T19:45:02.267Z,53.98
2023-05-05T19:47:31.643Z,54.06
2023-05-05T19:50:00.393Z,53.78
2023-05-05T19:52:29.071Z,54.62
2023-05-05T19:54:59.144Z,54.19
2023-05-05T19:57:28.123Z,54.08
2023-05-05T19:59:56.770Z,54.66
2023-05-05T20:02:27.228Z,54.37
2023-05-05T20:04:56.207Z,54.57
2023-05-05T20:07:25.067Z,54.86
2023-05-05T20:09:53.838Z,54.51
2023-05-05T20:12:23.522Z,54.78
2023-05-05T20:14:52.228Z,54.49
2023-05-05T20:17:21.494Z,54.87
2023-05-05T20:19:50.599Z,54.92
2023-05-05T20:22:19.357Z,54.78
2023-05-05T20:24:48.164Z,54.82
2023-05-05T20:27:17.029Z,54.89
2023-05-05T20:29:45.698Z,55.05
2023-05-05T20:32:14.641Z,55.28
2023-05-05T20:34:43.325Z,55.17
2023-05-05T20:37:13.784Z,55.55
2023-05-05T20:39:43.804Z,55.17
2023-05-05T20:42:12.729Z,55.40
2023-05-05T20:44:42.166Z,55.77
2023-05-05T20:47:10.921Z,56.19
2023-05-05T20:49:39.719Z,55.92
2023-05-05T20:52:08.394Z,55.62
2023-05-05T20:54:37.167Z,55.98
2023-05-05T20:57:07.281Z,56.24
2023-05-05T20:59:36.014Z,56.00
2023-05-05T21:02:04.816Z,56.38
2023-05-05T21:04:33.790Z,56.16
2023-05-05T21:07:02.937Z,56.14
2023-05-05T21:09:31.734Z,56.01
2023-05-05T21:12:00.730Z,56.20
2023-05-05T21:14:29.684Z,56.57
2023-05-05T21:16:58.470Z,56.99
2023-05-05T21:19:27.267Z,57.21
2023-05-05T21:21:59.179Z,56.84
2023-05-05T21:24:28.353Z,56.54
2023-05-05T21:26:57.104Z,56.51
2023-05-05T21:29:25.952Z,56.77
2023-05-05T21:31:54.671Z,56.90
2023-05-05T21:34:23.476Z,56.79
2023-05-05T21:36:52.105Z,57.21
2023-05-05T21:39:20.759Z,57.13
2023-05-05T21:41:49.927Z,57.15
2023-05-05T21:44:18.735Z,56.98
2023-05-05T21:46:47.515Z,57.11
2023-05-05T21:49:17.689Z,57.32
2023-05-05T21:51:46.512Z,57.32
2023-05-05T21:54:15.328Z,57.10
2023-05-05T21:56:44.063Z,57.16
2023-05-05T21:59:13.903Z,57.76
2023-05-05T22:01:43.533Z,57.50
2023-05-05T22:04:12.259Z,57.71
2023-05-05T22:06:41.881Z,57.33
2023-05-05T22:09:10.598Z,57.31
2023-05-05T22:11:39.272Z,57.41
2023-05-05T22:14:07.922Z,57.38
2023-05-05T22:16:36.674Z,57.58
2023-05-05T22:19:05.411Z,57.60
2023-05-05T22:21:34.079Z,57.55
2023-05-05T22:24:02.785Z,58.02
2023-05-05T22:26:31.494Z,58.07
2023-05-05T22:29:00.200Z,58.19
2023-05-05T22:31:29.512Z,57.84
2023-05-05T22:33:58.395Z,57.84
2023-05-05T22:36:27.636Z,58.01
2023-05-05T22:38:56.365Z,58.23
2023-05-05T22:41:25.609Z,58.69
2023-05-05T22:43:54.313Z,58.45
2023-05-05T22:46:22.976Z,58.45
2023-05-05T22:48:52.899Z,58.64
2023-05-05T22:51:21.677Z,58.57
2023-05-05T22:53:51.085Z,58.36
2023-05-05T22:56:19.812Z,58.57
2023-05-05T22:58:48.542Z,58.29
2023-05-05T23:01:17.257Z,58.64
2023-05-05T23:03:45.929Z,58.58
2023-05-05T23:06:14.580Z,58.50
2023-05-05T23:08:43.309Z,58.53
2023-05-05T23:11:11.955Z,58.61
2023-05-05T23:13:40.753Z,58.63
2023-05-05T23:16:09.545Z,58.55
2023-05-05T23:18:38.781Z,58.69
2023-05-05T23:21:07.573Z,58.55
2023-05-05T23:23:36.383Z,58.92
2023-05-05T23:26:05.078Z,58.83
2023-05-05T23:28:33.716Z,59.34
2023-05-05T23:31:02.432Z,58.91
2023-05-05T23:33:31.363Z,59.03
2023-05-05T23:36:00.050Z,59.05
2023-05-05T23:38:28.818Z,58.93
2023-05-05T23:40:57.528Z,59.00
2023-05-05T23:43:26.147Z,59.02
2023-05-05T23:45:54.853Z,59.14
2023-05-05T23:48:24.005Z,59.26
2023-05-05T23:50:52.707Z,59.19
2023-05-05T23:53:21.600Z,59.30
2023-05-05T23:55:50.458Z,59.37
2023-05-05T23:58:19.110Z,59.32
